Irving South's Hourly Summary for Friday, July 6, 2018
Hour Temp
(f)
RH
(%)
Solar Rad.
(MJ/m2)
Rainfall
(in)
Wind
(mph)
7/6/2018 12:00 AM 85 57 0 0 2.47
7/6/2018 1:00 AM 84 59 0 0 1.52
7/6/2018 2:00 AM 83 59 0 0 0.74
7/6/2018 3:00 AM 82 62 0 0 0.22
7/6/2018 4:00 AM 81 63 0 0 0.18
7/6/2018 5:00 AM 80 65 0 0 0
7/6/2018 6:00 AM 79 69 0 0 0.54
7/6/2018 7:00 AM 79 72 0.03 0 0.56
7/6/2018 8:00 AM 80 72 0.15 0 1.71
7/6/2018 9:00 AM 83 61 0.96 0 1.66
7/6/2018 10:00 AM 86 54 1.85 0 2.3
7/6/2018 11:00 AM 88 51 1.96 0 2.17
7/6/2018 12:00 PM 91 43 2.49 0 3.04
7/6/2018 1:00 PM 93 40 3.4 0 3.96
7/6/2018 2:00 PM 93 39 2.39 0 3.86
7/6/2018 3:00 PM 90 36 1.78 0.01 2.3
7/6/2018 4:00 PM 90 39 1.94 0 3.23
7/6/2018 5:00 PM 83 53 0.3 0.01 2.05
7/6/2018 6:00 PM 81 65 0.44 0 0.53
7/6/2018 7:00 PM 83 57 0.64 0 1.52
7/6/2018 8:00 PM 84 59 0.45 0 1.17
7/6/2018 9:00 PM 84 53 0.04 0 2.45
7/6/2018 10:00 PM 83 53 0 0 4.17
7/6/2018 11:00 PM 82 66 0 0 2.48
Data Summary 84 56 18.82 0.02 1.87